Terminal Aerodrome Forecast
Issued by NWS

Home | Current Version | Previous Version | Text Only | Print | Product List | Glossary On
Versions: 1 2 3 4 5 6 7 8 9
958
FTUS43 KLSX 221129
TAFUIN
TAF
KUIN 221129Z 2212/2312 04010KT P6SM OVC200
     FM221800 03011G21KT P6SM OVC200
     FM230700 02006KT P6SM SKC=

USA.gov is the U.S. government's official web portal to all federal, state and local government web resources and services.